Terminal Aerodrome Forecast
Issued by NWS

Home | Current Version | Previous Version | Text Only | Print | Product List | Glossary On
Versions: 1 2 3 4 5 6 7 8 9 10 11 12
000
FTUS42 KGSP 211100
TAFGMU
TAF
KGMU 211121Z 2112/2212 00000KT P6SM SKC
     FM211500 25003KT P6SM FEW250
     FM211800 29007KT P6SM FEW050 FEW250
     FM220100 36009KT P6SM FEW250=

USA.gov is the U.S. government's official web portal to all federal, state and local government web resources and services.